createdAt,value
2017-08-29T00:00:24.841Z,62.40
2017-08-29T00:02:51.360Z,63.20
2017-08-29T00:05:17.809Z,63.50
2017-08-29T00:07:44.260Z,63.70
2017-08-29T00:10:10.800Z,63.50
2017-08-29T00:12:37.248Z,64.10
2017-08-29T00:15:03.751Z,63.90
2017-08-29T00:17:30.246Z,64.40
2017-08-29T00:19:56.692Z,64.70
2017-08-29T00:22:23.184Z,64.40
2017-08-29T00:24:49.702Z,65.30
2017-08-29T00:27:16.165Z,65.40
2017-08-29T00:29:42.593Z,64.40
2017-08-29T00:32:09.166Z,64.00
2017-08-29T00:34:35.678Z,64.10
2017-08-29T00:37:02.180Z,63.70
2017-08-29T00:39:28.656Z,66.30
2017-08-29T00:41:55.177Z,65.60
2017-08-29T00:44:21.658Z,64.60
2017-08-29T00:46:48.182Z,64.30
2017-08-29T00:49:14.637Z,64.40
2017-08-29T00:51:41.111Z,64.20
2017-08-29T00:54:07.641Z,64.20
2017-08-29T00:56:34.200Z,65.00
2017-08-29T00:59:00.673Z,64.70
2017-08-29T01:01:27.177Z,64.40
2017-08-29T01:03:53.749Z,64.10
2017-08-29T01:06:20.238Z,63.80
2017-08-29T01:08:46.674Z,64.00
2017-08-29T01:11:13.270Z,63.50
2017-08-29T01:13:39.896Z,63.50
2017-08-29T01:16:06.373Z,63.30
2017-08-29T01:18:32.874Z,64.10
2017-08-29T01:20:59.397Z,66.10
2017-08-29T01:23:25.941Z,67.30
2017-08-29T01:25:52.434Z,66.20
2017-08-29T01:28:18.973Z,65.40
2017-08-29T01:30:45.489Z,65.10
2017-08-29T01:33:12.009Z,64.50
2017-08-29T01:35:38.585Z,65.10
2017-08-29T01:38:05.084Z,66.00
2017-08-29T01:40:31.621Z,66.10
2017-08-29T01:42:58.149Z,65.80
2017-08-29T01:45:24.675Z,66.30
2017-08-29T01:47:51.193Z,66.80
2017-08-29T01:50:17.693Z,68.10
2017-08-29T01:52:44.184Z,68.60
2017-08-29T01:55:10.705Z,68.00
2017-08-29T01:57:37.295Z,67.70
2017-08-29T02:00:03.801Z,67.40
2017-08-29T02:02:30.359Z,68.90
2017-08-29T02:04:56.876Z,70.90
2017-08-29T02:07:23.401Z,71.60
2017-08-29T02:09:49.953Z,70.00
2017-08-29T02:12:16.441Z,71.00
2017-08-29T02:14:42.948Z,70.60
2017-08-29T02:17:09.520Z,70.20
2017-08-29T02:19:36.014Z,70.70
2017-08-29T02:22:02.479Z,71.80
2017-08-29T02:24:28.929Z,72.70
2017-08-29T02:26:55.476Z,72.30
2017-08-29T02:29:21.988Z,71.40
2017-08-29T02:31:48.424Z,71.10
2017-08-29T02:34:15.614Z,70.70
2017-08-29T02:36:42.105Z,70.60
2017-08-29T02:39:08.548Z,70.40
2017-08-29T02:41:35.049Z,70.50
2017-08-29T02:44:01.510Z,69.30
2017-08-29T02:46:27.959Z,68.60
2017-08-29T02:48:54.414Z,68.30
2017-08-29T02:51:20.973Z,67.80
2017-08-29T02:53:47.408Z,67.80
2017-08-29T02:56:13.929Z,67.70
2017-08-29T02:58:40.373Z,67.30
2017-08-29T03:01:06.809Z,68.00
2017-08-29T03:03:33.279Z,68.00
2017-08-29T03:05:59.713Z,67.40
2017-08-29T03:08:26.151Z,67.30
2017-08-29T03:10:52.634Z,67.30
2017-08-29T03:13:19.128Z,68.10
2017-08-29T03:15:45.613Z,68.00
2017-08-29T03:18:12.039Z,70.20
2017-08-29T03:20:38.477Z,70.70
2017-08-29T03:23:04.945Z,70.80
2017-08-29T03:25:31.401Z,70.90
2017-08-29T03:27:57.917Z,70.50
2017-08-29T03:30:24.365Z,69.20
2017-08-29T03:32:50.893Z,69.10
2017-08-29T03:35:17.666Z,68.80
2017-08-29T03:37:44.096Z,68.80
2017-08-29T03:40:10.607Z,69.10
2017-08-29T03:42:37.053Z,69.00
2017-08-29T03:45:03.546Z,69.60
2017-08-29T03:47:30.025Z,71.20
2017-08-29T03:49:56.453Z,70.70
2017-08-29T03:52:22.916Z,69.80
2017-08-29T03:54:49.500Z,68.40
2017-08-29T03:57:15.993Z,68.30
2017-08-29T03:59:42.437Z,68.00
2017-08-29T04:02:08.889Z,68.00
2017-08-29T04:04:35.344Z,68.30
2017-08-29T04:07:01.801Z,67.90
2017-08-29T04:09:28.233Z,68.20
2017-08-29T04:11:54.741Z,68.10
2017-08-29T04:14:21.211Z,67.70
2017-08-29T04:16:47.662Z,67.60
2017-08-29T04:19:14.131Z,68.00
2017-08-29T04:21:40.613Z,68.30
2017-08-29T04:24:07.098Z,68.20
2017-08-29T04:26:33.601Z,70.30
2017-08-29T04:29:00.082Z,69.80
2017-08-29T04:31:26.529Z,69.90
2017-08-29T04:33:52.940Z,70.90
2017-08-29T04:36:19.466Z,71.40
2017-08-29T04:38:45.961Z,70.40
2017-08-29T04:41:12.445Z,69.80
2017-08-29T04:43:38.993Z,69.70
2017-08-29T04:46:05.437Z,69.90
2017-08-29T04:48:31.863Z,70.80
2017-08-29T04:50:58.314Z,70.10
2017-08-29T04:53:24.740Z,69.90
2017-08-29T04:55:51.205Z,69.60
2017-08-29T04:58:17.713Z,70.00
2017-08-29T05:00:44.196Z,70.20
2017-08-29T05:03:10.738Z,70.00
2017-08-29T05:05:37.289Z,70.30
2017-08-29T05:08:03.758Z,70.20
2017-08-29T05:10:30.233Z,70.40
2017-08-29T05:12:56.724Z,71.70
2017-08-29T05:15:23.178Z,72.50
2017-08-29T05:17:49.684Z,72.80
2017-08-29T05:20:16.208Z,72.80
2017-08-29T05:22:42.626Z,72.70
2017-08-29T05:25:09.055Z,71.30
2017-08-29T05:27:35.673Z,70.80
2017-08-29T05:30:02.120Z,70.40
2017-08-29T05:32:28.569Z,69.70
2017-08-29T05:34:55.092Z,69.60
2017-08-29T05:37:21.529Z,68.70
2017-08-29T05:39:47.988Z,69.80
2017-08-29T05:42:14.459Z,69.20
2017-08-29T05:44:40.878Z,69.10
2017-08-29T05:47:07.374Z,68.70
2017-08-29T05:49:34.106Z,67.90
2017-08-29T05:52:00.529Z,67.10
2017-08-29T05:54:26.983Z,66.80
2017-08-29T05:56:53.491Z,65.90
2017-08-29T05:59:19.945Z,65.60
2017-08-29T06:01:46.405Z,64.90
2017-08-29T06:04:12.925Z,64.90
2017-08-29T06:06:39.444Z,64.40
2017-08-29T06:09:05.938Z,64.30
2017-08-29T06:11:32.477Z,64.20
2017-08-29T06:13:58.986Z,63.90
2017-08-29T06:16:25.465Z,63.70
2017-08-29T06:18:51.971Z,63.40
2017-08-29T06:21:18.416Z,62.80
2017-08-29T06:23:44.899Z,62.30
2017-08-29T06:26:11.341Z,61.50
2017-08-29T06:28:37.837Z,61.50
2017-08-29T06:31:04.321Z,60.90
2017-08-29T06:33:30.760Z,61.20
2017-08-29T06:35:57.252Z,61.20
2017-08-29T06:38:23.715Z,60.70
2017-08-29T06:40:50.175Z,60.20
2017-08-29T06:43:16.617Z,59.40
2017-08-29T06:45:43.091Z,58.70
2017-08-29T06:48:09.556Z,58.70
2017-08-29T06:50:36.044Z,58.30
2017-08-29T06:53:05.375Z,57.70
2017-08-29T06:55:31.813Z,57.10
2017-08-29T06:57:58.375Z,57.60
2017-08-29T07:00:24.819Z,56.40
2017-08-29T07:02:51.312Z,56.30
2017-08-29T07:05:17.777Z,56.80
2017-08-29T07:07:44.225Z,55.60
2017-08-29T07:10:10.713Z,54.30
2017-08-29T07:12:37.225Z,54.80
2017-08-29T07:15:03.739Z,54.10
2017-08-29T07:17:30.283Z,52.40
2017-08-29T07:19:56.758Z,52.20
2017-08-29T07:22:23.238Z,51.20
2017-08-29T07:24:49.781Z,51.20
2017-08-29T07:27:16.400Z,50.30
2017-08-29T07:29:42.897Z,49.20
2017-08-29T07:32:09.417Z,48.60
2017-08-29T07:34:35.915Z,47.30
2017-08-29T07:37:02.402Z,47.00
2017-08-29T07:39:28.926Z,46.20
2017-08-29T07:41:55.473Z,45.50
2017-08-29T07:44:21.960Z,46.00
2017-08-29T07:46:48.465Z,44.70
2017-08-29T07:49:14.985Z,44.00
2017-08-29T07:51:41.493Z,43.90
2017-08-29T07:54:08.010Z,43.50
2017-08-29T07:56:34.481Z,43.80
2017-08-29T07:59:01.002Z,43.50
2017-08-29T08:01:27.447Z,43.10
2017-08-29T08:03:53.885Z,42.70
2017-08-29T08:06:20.433Z,42.70
2017-08-29T08:08:46.891Z,42.60
2017-08-29T08:11:13.366Z,42.80
2017-08-29T08:13:39.873Z,42.40
2017-08-29T08:16:06.391Z,41.80
2017-08-29T08:18:32.886Z,40.70
2017-08-29T08:20:59.422Z,40.90
2017-08-29T08:23:25.900Z,39.40
2017-08-29T08:25:52.359Z,39.70
2017-08-29T08:28:18.805Z,38.60
2017-08-29T08:30:45.431Z,38.40
2017-08-29T08:33:11.930Z,37.20
2017-08-29T08:35:38.422Z,36.70
2017-08-29T08:38:04.931Z,36.30
2017-08-29T08:40:31.477Z,36.50
2017-08-29T08:42:57.922Z,36.00
2017-08-29T08:45:24.410Z,35.60
2017-08-29T08:47:50.923Z,34.90
2017-08-29T08:50:17.531Z,34.90
2017-08-29T08:52:44.069Z,34.00
2017-08-29T08:55:10.571Z,34.90
2017-08-29T08:57:37.128Z,33.60
2017-08-29T09:00:04.048Z,33.00
2017-08-29T09:02:30.555Z,33.10
2017-08-29T09:04:57.010Z,32.90
2017-08-29T09:07:23.562Z,32.40
2017-08-29T09:09:50.993Z,32.70
2017-08-29T09:12:18.995Z,33.10
2017-08-29T09:14:45.735Z,32.50
2017-08-29T09:17:12.227Z,32.40
2017-08-29T09:19:38.713Z,32.60
2017-08-29T09:22:05.538Z,32.20
2017-08-29T09:24:32.020Z,31.70
2017-08-29T09:26:58.469Z,31.10
2017-08-29T09:29:28.605Z,31.60
2017-08-29T09:31:55.698Z,31.60
2017-08-29T09:34:22.173Z,31.50
2017-08-29T09:36:48.667Z,30.90
2017-08-29T09:39:15.206Z,30.40
2017-08-29T09:41:41.674Z,30.10
2017-08-29T09:44:08.173Z,30.50
2017-08-29T09:46:34.681Z,30.60
2017-08-29T09:49:01.147Z,30.30
2017-08-29T09:51:27.709Z,30.50
2017-08-29T09:53:54.173Z,30.50
2017-08-29T09:56:20.698Z,30.00
2017-08-29T09:58:47.205Z,30.10
2017-08-29T10:01:13.706Z,30.50
2017-08-29T10:03:40.197Z,29.80
2017-08-29T10:06:06.654Z,30.00
2017-08-29T10:08:33.151Z,30.10
2017-08-29T10:10:59.653Z,32.80
2017-08-29T10:13:26.125Z,31.20
2017-08-29T10:15:52.574Z,30.80
2017-08-29T10:18:19.044Z,30.10
2017-08-29T10:20:45.564Z,29.80
2017-08-29T10:23:15.823Z,29.60
2017-08-29T10:25:46.753Z,29.70
2017-08-29T10:28:18.333Z,29.90
2017-08-29T10:30:50.939Z,30.30
2017-08-29T10:33:22.703Z,30.40
2017-08-29T10:35:49.877Z,30.40
2017-08-29T10:38:16.328Z,31.40
2017-08-29T10:40:42.797Z,31.70
2017-08-29T10:43:09.338Z,32.40
2017-08-29T10:45:35.834Z,32.30
2017-08-29T10:48:02.327Z,32.70
2017-08-29T10:50:28.983Z,32.30
2017-08-29T10:52:55.481Z,32.70
2017-08-29T10:55:22.033Z,32.20
2017-08-29T10:57:48.581Z,32.20
2017-08-29T11:00:15.093Z,32.70
2017-08-29T11:02:41.627Z,31.70
2017-08-29T11:05:08.073Z,31.90
2017-08-29T11:07:34.601Z,31.90
2017-08-29T11:10:01.057Z,31.90
2017-08-29T11:12:27.602Z,32.10
2017-08-29T11:14:54.068Z,31.30
2017-08-29T11:17:20.554Z,31.50
2017-08-29T11:19:47.097Z,31.60
2017-08-29T11:22:13.654Z,31.70
2017-08-29T11:24:40.162Z,31.70
2017-08-29T11:27:06.698Z,31.60
2017-08-29T11:29:33.223Z,31.90
2017-08-29T11:31:59.782Z,32.10
2017-08-29T11:34:26.339Z,32.00
2017-08-29T11:36:52.896Z,32.20
2017-08-29T11:39:19.430Z,31.90
2017-08-29T11:41:45.908Z,31.60
2017-08-29T11:44:12.438Z,32.40
2017-08-29T11:46:38.952Z,32.80
2017-08-29T11:49:05.622Z,32.10
2017-08-29T11:51:32.117Z,32.60
2017-08-29T11:53:59.381Z,33.30
2017-08-29T11:56:25.997Z,33.30
2017-08-29T11:58:52.527Z,32.50
2017-08-29T12:01:19.054Z,32.40
2017-08-29T12:03:45.600Z,33.00
2017-08-29T12:06:12.073Z,32.40
2017-08-29T12:08:38.579Z,32.90
2017-08-29T12:11:05.111Z,33.40
2017-08-29T12:13:31.743Z,33.20
2017-08-29T12:15:58.202Z,33.40
2017-08-29T12:18:24.642Z,33.30
2017-08-29T12:20:51.205Z,33.00
2017-08-29T12:23:17.729Z,33.50
2017-08-29T12:25:44.209Z,33.60
2017-08-29T12:28:10.701Z,32.90
2017-08-29T12:30:37.273Z,33.60
2017-08-29T12:33:03.745Z,33.10
2017-08-29T12:35:30.186Z,32.70
2017-08-29T12:37:56.674Z,33.00
2017-08-29T12:40:23.145Z,32.80
2017-08-29T12:42:49.706Z,33.90
2017-08-29T12:45:16.185Z,34.50
2017-08-29T12:47:42.645Z,35.00
2017-08-29T12:50:09.157Z,34.90
2017-08-29T12:52:35.612Z,34.80
2017-08-29T12:55:03.974Z,34.90
2017-08-29T12:57:31.314Z,34.80
2017-08-29T12:59:57.809Z,35.10
2017-08-29T13:02:24.277Z,34.60
2017-08-29T13:04:51.513Z,33.40
2017-08-29T13:07:17.996Z,33.30
2017-08-29T13:09:44.434Z,33.20
2017-08-29T13:12:10.894Z,34.30
2017-08-29T13:14:37.491Z,34.20
2017-08-29T13:17:03.954Z,33.30
2017-08-29T13:19:30.418Z,33.30
2017-08-29T13:21:56.975Z,34.30
2017-08-29T13:24:23.579Z,33.50
2017-08-29T13:26:50.050Z,33.70
2017-08-29T13:29:16.488Z,33.40
2017-08-29T13:31:42.996Z,33.00
2017-08-29T13:34:09.462Z,34.40
2017-08-29T13:36:35.939Z,34.60
2017-08-29T13:39:02.494Z,34.60
2017-08-29T13:41:29.089Z,34.60
2017-08-29T13:43:55.784Z,33.70
2017-08-29T13:46:22.249Z,33.80
2017-08-29T13:48:48.713Z,32.90
2017-08-29T13:51:15.206Z,33.10
2017-08-29T13:53:41.686Z,34.20
2017-08-29T13:56:08.130Z,34.00
2017-08-29T13:58:34.595Z,34.10
2017-08-29T14:01:01.028Z,35.00
2017-08-29T14:03:27.513Z,33.70
2017-08-29T14:05:53.946Z,34.50
2017-08-29T14:08:20.446Z,33.90
2017-08-29T14:10:46.945Z,34.90
2017-08-29T14:13:13.441Z,35.20
2017-08-29T14:15:39.938Z,35.60
2017-08-29T14:18:06.386Z,35.10
2017-08-29T14:20:32.878Z,34.60
2017-08-29T14:23:00.249Z,35.40
2017-08-29T14:25:26.720Z,34.90
2017-08-29T14:27:53.204Z,33.80
2017-08-29T14:30:19.739Z,34.10
2017-08-29T14:32:46.210Z,33.50
2017-08-29T14:35:12.701Z,34.10
2017-08-29T14:37:39.876Z,33.80
2017-08-29T14:40:06.342Z,34.30
2017-08-29T14:42:32.848Z,34.20
2017-08-29T14:44:59.338Z,35.00
2017-08-29T14:47:38.189Z,35.10
2017-08-29T14:50:04.636Z,35.10
2017-08-29T14:52:31.172Z,34.30
2017-08-29T14:54:57.688Z,34.40
2017-08-29T14:57:24.230Z,33.20
2017-08-29T14:59:50.673Z,33.60
2017-08-29T15:02:17.294Z,33.80
2017-08-29T15:04:43.734Z,35.10
2017-08-29T15:07:10.167Z,34.40
2017-08-29T15:09:36.644Z,33.50
2017-08-29T15:12:03.101Z,34.50
2017-08-29T15:14:29.607Z,34.10
2017-08-29T15:16:56.173Z,32.90
2017-08-29T15:19:22.603Z,33.20
2017-08-29T15:21:49.886Z,32.70
2017-08-29T15:24:16.313Z,33.10
2017-08-29T15:26:42.818Z,33.00
2017-08-29T15:29:09.253Z,33.30
2017-08-29T15:31:35.782Z,34.20
2017-08-29T15:34:02.258Z,34.30
2017-08-29T15:36:28.714Z,33.80
2017-08-29T15:38:55.309Z,33.70
2017-08-29T15:41:21.763Z,33.30
2017-08-29T15:43:48.302Z,33.50
2017-08-29T15:46:14.776Z,33.70
2017-08-29T15:48:41.307Z,33.40
2017-08-29T15:51:07.790Z,33.80
2017-08-29T15:53:34.234Z,34.10
2017-08-29T15:56:00.735Z,34.10
2017-08-29T15:58:27.194Z,34.70
2017-08-29T16:00:53.703Z,34.80
2017-08-29T16:03:20.205Z,35.00
2017-08-29T16:05:46.730Z,34.90
2017-08-29T16:08:13.219Z,34.90
2017-08-29T16:10:39.761Z,35.30
2017-08-29T16:13:06.230Z,34.50
2017-08-29T16:15:32.681Z,34.60
2017-08-29T16:17:59.200Z,34.70
2017-08-29T16:20:25.650Z,34.60
2017-08-29T16:22:52.155Z,34.20
2017-08-29T16:25:18.616Z,34.60
2017-08-29T16:27:45.101Z,34.30
2017-08-29T16:30:11.661Z,34.30
2017-08-29T16:32:38.128Z,34.80
2017-08-29T16:35:04.614Z,34.70
2017-08-29T16:37:31.258Z,34.80
2017-08-29T16:39:57.706Z,35.30
2017-08-29T16:42:24.161Z,35.10
2017-08-29T16:44:50.669Z,35.40
2017-08-29T16:47:17.159Z,36.00
2017-08-29T16:49:43.649Z,36.20
2017-08-29T16:52:10.123Z,36.40
2017-08-29T16:54:36.644Z,36.80
2017-08-29T16:57:03.090Z,36.90
2017-08-29T16:59:29.589Z,36.60
2017-08-29T17:01:56.068Z,36.90
2017-08-29T17:04:22.561Z,36.70
2017-08-29T17:06:49.173Z,36.40
2017-08-29T17:09:15.726Z,37.20
2017-08-29T17:11:42.206Z,36.90
2017-08-29T17:14:08.797Z,37.20
2017-08-29T17:16:35.301Z,37.50
2017-08-29T17:19:01.862Z,37.50
2017-08-29T17:21:28.317Z,37.40
2017-08-29T17:23:54.781Z,37.30
2017-08-29T17:26:21.360Z,37.20
2017-08-29T17:28:47.898Z,37.40
2017-08-29T17:31:14.365Z,37.50
2017-08-29T17:33:40.834Z,37.40
2017-08-29T17:36:07.345Z,37.20
2017-08-29T17:38:33.826Z,37.00
2017-08-29T17:41:00.284Z,37.20
2017-08-29T17:43:26.777Z,37.70
2017-08-29T17:45:53.914Z,37.70
2017-08-29T17:48:20.502Z,37.80
2017-08-29T17:50:46.945Z,38.20
2017-08-29T17:53:14.270Z,38.70
2017-08-29T17:55:40.793Z,38.70
2017-08-29T17:58:07.248Z,38.90
2017-08-29T18:00:33.710Z,39.00
2017-08-29T18:03:00.237Z,39.60
2017-08-29T18:05:26.669Z,40.00
2017-08-29T18:07:53.154Z,40.00
2017-08-29T18:10:19.671Z,39.90
2017-08-29T18:12:46.170Z,40.00
2017-08-29T18:15:12.651Z,40.20
2017-08-29T18:17:39.109Z,40.20
2017-08-29T18:20:05.731Z,40.20
2017-08-29T18:22:32.226Z,40.30
2017-08-29T18:24:58.836Z,40.40
2017-08-29T18:27:25.361Z,40.90
2017-08-29T18:29:51.836Z,40.40
2017-08-29T18:32:18.354Z,40.30
2017-08-29T18:34:44.835Z,40.50
2017-08-29T18:37:11.387Z,40.10
2017-08-29T18:39:37.870Z,40.20
2017-08-29T18:42:04.359Z,40.40
2017-08-29T18:44:30.835Z,40.70
2017-08-29T18:46:57.402Z,40.50
2017-08-29T18:49:23.914Z,40.90
2017-08-29T18:51:50.367Z,41.10
2017-08-29T18:54:16.886Z,41.10
2017-08-29T18:56:43.418Z,41.20
2017-08-29T18:59:09.996Z,41.50
2017-08-29T19:01:36.480Z,41.20
2017-08-29T19:04:02.982Z,41.80
2017-08-29T19:06:29.454Z,42.00
2017-08-29T19:08:55.974Z,41.50
2017-08-29T19:11:22.438Z,42.40
2017-08-29T19:13:48.905Z,42.70
2017-08-29T19:16:15.503Z,42.60
2017-08-29T19:18:42.029Z,42.90
2017-08-29T19:21:09.242Z,43.00
2017-08-29T19:23:35.681Z,43.20
2017-08-29T19:26:02.226Z,43.90
2017-08-29T19:28:28.720Z,44.30
2017-08-29T19:30:55.185Z,44.50
2017-08-29T19:33:21.686Z,44.70
2017-08-29T19:35:48.208Z,45.10
2017-08-29T19:38:14.669Z,45.60
2017-08-29T19:40:41.171Z,45.90
2017-08-29T19:43:07.742Z,46.20
2017-08-29T19:45:34.238Z,46.50
2017-08-29T19:48:00.813Z,46.80
2017-08-29T19:50:27.418Z,47.10
2017-08-29T19:52:53.906Z,47.40
2017-08-29T19:55:20.421Z,47.40
2017-08-29T19:57:46.905Z,47.50
2017-08-29T20:00:13.431Z,47.50
2017-08-29T20:02:39.938Z,47.70
2017-08-29T20:05:06.390Z,48.00
2017-08-29T20:07:32.905Z,47.90
2017-08-29T20:09:59.386Z,48.30
2017-08-29T20:12:25.834Z,48.60
2017-08-29T20:14:52.388Z,48.60
2017-08-29T20:17:18.878Z,48.80
2017-08-29T20:19:45.348Z,48.80
2017-08-29T20:22:11.835Z,48.70
2017-08-29T20:24:38.311Z,48.70
2017-08-29T20:27:04.848Z,48.80
2017-08-29T20:29:31.412Z,48.70
2017-08-29T20:31:57.871Z,48.80
2017-08-29T20:34:24.349Z,48.80
2017-08-29T20:36:50.873Z,49.50
2017-08-29T20:39:17.390Z,49.20
2017-08-29T20:41:43.823Z,49.30
2017-08-29T20:44:10.351Z,49.40
2017-08-29T20:46:36.733Z,49.50
2017-08-29T20:49:03.123Z,49.90
2017-08-29T20:51:29.605Z,50.10
2017-08-29T20:53:56.017Z,50.30
2017-08-29T20:56:22.454Z,50.40
2017-08-29T20:58:48.941Z,50.60
2017-08-29T21:01:15.416Z,50.60
2017-08-29T21:03:41.821Z,50.80
2017-08-29T21:06:08.266Z,50.90
2017-08-29T21:08:34.730Z,51.00
2017-08-29T21:11:01.112Z,51.80
2017-08-29T21:13:27.609Z,51.20
2017-08-29T21:15:54.002Z,51.30
2017-08-29T21:18:20.445Z,51.40
2017-08-29T21:20:46.850Z,51.20
2017-08-29T21:23:13.266Z,51.50
2017-08-29T21:25:39.696Z,51.50
2017-08-29T21:28:06.124Z,51.60
2017-08-29T21:30:32.513Z,51.60
2017-08-29T21:32:58.938Z,51.70
2017-08-29T21:35:25.401Z,51.70
2017-08-29T21:37:51.779Z,51.80
2017-08-29T21:40:18.213Z,52.00
2017-08-29T21:42:44.621Z,51.90
2017-08-29T21:45:11.129Z,52.00
2017-08-29T21:47:37.584Z,52.10
2017-08-29T21:50:04.062Z,52.20
2017-08-29T21:52:30.467Z,52.30
2017-08-29T21:54:56.910Z,52.50
2017-08-29T21:57:23.364Z,52.70
2017-08-29T21:59:49.821Z,52.90
2017-08-29T22:02:16.282Z,53.00
2017-08-29T22:04:42.738Z,53.00
2017-08-29T22:07:09.286Z,53.10
2017-08-29T22:09:35.720Z,53.20
2017-08-29T22:12:02.162Z,53.30
2017-08-29T22:14:28.633Z,53.40
2017-08-29T22:16:55.329Z,53.40
2017-08-29T22:19:21.805Z,53.30
2017-08-29T22:21:48.245Z,53.30
2017-08-29T22:24:14.732Z,53.20
2017-08-29T22:26:41.208Z,53.40
2017-08-29T22:29:07.696Z,53.30
2017-08-29T22:31:34.170Z,53.20
2017-08-29T22:34:00.697Z,53.30
2017-08-29T22:36:27.175Z,53.30
2017-08-29T22:38:53.630Z,53.40
2017-08-29T22:41:20.136Z,53.40
2017-08-29T22:43:46.597Z,53.50
2017-08-29T22:46:13.085Z,53.60
2017-08-29T22:48:39.558Z,53.70
2017-08-29T22:51:06.013Z,53.80
2017-08-29T22:53:32.519Z,54.00
2017-08-29T22:55:59.030Z,53.80
2017-08-29T22:58:25.529Z,53.70
2017-08-29T23:00:52.086Z,53.80
2017-08-29T23:03:18.519Z,53.80
2017-08-29T23:05:45.021Z,53.80
2017-08-29T23:08:11.485Z,54.50
2017-08-29T23:10:37.963Z,53.80
2017-08-29T23:13:04.521Z,53.90
2017-08-29T23:15:30.965Z,53.90
2017-08-29T23:17:57.477Z,53.90
2017-08-29T23:20:23.942Z,54.00
2017-08-29T23:22:50.377Z,54.10
2017-08-29T23:25:16.952Z,54.20
2017-08-29T23:27:43.400Z,54.30
2017-08-29T23:30:09.940Z,54.40
2017-08-29T23:32:36.388Z,54.40
2017-08-29T23:35:02.825Z,54.30
2017-08-29T23:37:29.381Z,54.40
2017-08-29T23:39:55.897Z,54.40
2017-08-29T23:42:22.320Z,54.40
2017-08-29T23:44:48.782Z,54.20
2017-08-29T23:47:15.234Z,54.30
2017-08-29T23:49:41.649Z,54.50
2017-08-29T23:52:08.147Z,54.70
2017-08-29T23:54:34.614Z,55.20
2017-08-29T23:57:01.084Z,55.30
2017-08-29T23:59:27.580Z,55.70
